Time;durP1;ratioP1;P1;durP2;ratioP2;P2;SDS_P1;SDS_P2;PMS_P1;PMS_P2;Temp;Humidity;BMP_temperature;BMP_pressure;BME280_temperature;BME280_humidity;BME280_pressure;Samples;Min_cycle;Max_cycle;Signal;HPM_P1;HPM_P2
2022/01/17 05:02:55;;;;;;;33.80;17.17;;;;;;;-6.51;100.00;95278.13;4949154;28;20105;-76
2022/01/17 05:05:21;;;;;;;32.20;17.83;;;;;;;-6.51;100.00;95289.00;4951688;28;20050;-76
2022/01/17 05:07:47;;;;;;;28.85;17.90;;;;;;;-6.58;100.00;95296.88;4935494;29;20054;-76
2022/01/17 05:10:15;;;;;;;32.88;17.45;;;;;;;-6.73;100.00;95277.31;4952203;28;20078;-76
2022/01/17 05:12:41;;;;;;;30.27;16.55;;;;;;;-6.72;100.00;95271.44;4934841;29;20039;-76
2022/01/17 05:15:16;;;;;;;40.78;20.60;;;;;;;-6.82;100.00;95286.06;4936258;29;20023;-76
2022/01/17 05:17:58;;;;;;;38.60;19.42;;;;;;;-6.68;100.00;95281.31;4951034;29;20385;-76
2022/01/17 05:20:23;;;;;;;34.80;18.15;;;;;;;-6.72;100.00;95272.25;4938320;29;20564;-76
2022/01/17 05:22:49;;;;;;;31.52;17.63;;;;;;;-6.67;100.00;95274.56;4951854;29;20071;-76
2022/01/17 05:25:14;;;;;;;38.60;18.98;;;;;;;-6.49;100.00;95274.69;4951155;29;20066;-76
2022/01/17 05:27:40;;;;;;;33.60;18.13;;;;;;;-6.36;100.00;95281.75;4952321;29;20125;-75
2022/01/17 05:30:09;;;;;;;37.30;20.58;;;;;;;-6.51;100.00;95270.56;4934581;29;20416;-76
2022/01/17 05:32:35;;;;;;;33.37;16.57;;;;;;;-5.50;100.00;95275.50;4951952;29;20089;-76
2022/01/17 05:35:00;;;;;;;38.70;18.13;;;;;;;-6.20;100.00;95260.91;4950543;29;20102;-76
2022/01/17 05:37:26;;;;;;;30.92;15.07;;;;;;;-6.02;100.00;95262.66;4952510;29;20019;-76
2022/01/17 05:39:51;;;;;;;34.67;17.77;;;;;;;-6.12;100.00;95268.13;4950768;28;20027;-76
2022/01/17 05:42:18;;;;;;;30.55;16.00;;;;;;;-5.85;100.00;95268.66;4950559;28;20031;-75
2022/01/17 05:44:47;;;;;;;32.22;16.38;;;;;;;-5.92;100.00;95263.06;4936005;28;20122;-76
2022/01/17 05:47:14;;;;;;;31.63;15.55;;;;;;;-6.07;100.00;95246.88;4950239;28;20027;-75
2022/01/17 05:49:40;;;;;;;36.28;15.55;;;;;;;-5.78;100.00;95252.38;4951858;28;20039;-76
2022/01/17 05:52:05;;;;;;;35.85;17.38;;;;;;;-5.83;100.00;95249.22;4942794;28;20531;-76
2022/01/17 05:54:31;;;;;;;39.42;22.67;;;;;;;-5.91;100.00;95249.59;4965303;28;20031;-76
2022/01/17 05:56:56;;;;;;;55.15;25.08;;;;;;;-5.97;100.00;95270.81;4934021;29;20027;-76
2022/01/17 05:59:22;;;;;;;53.05;26.10;;;;;;;-6.07;100.00;95271.28;4966371;28;20500;-76
2022/01/17 06:01:47;;;;;;;41.88;22.58;;;;;;;-5.99;100.00;95270.06;4949467;28;20054;-76
2022/01/17 06:04:13;;;;;;;40.67;19.38;;;;;;;-5.88;100.00;95272.97;4963324;28;20039;-77
2022/01/17 06:06:38;;;;;;;39.25;20.98;;;;;;;-5.75;100.00;95277.44;4965594;28;20114;-76
2022/01/17 06:09:04;;;;;;;52.25;25.10;;;;;;;-5.50;100.00;95272.97;4957432;28;20031;-76
2022/01/17 06:11:30;;;;;;;43.95;23.70;;;;;;;-5.62;100.00;95273.53;4946335;28;20071;-76
2022/01/17 06:13:57;;;;;;;33.67;18.55;;;;;;;-5.36;100.00;95265.59;4943561;28;20032;-77
2022/01/17 06:16:23;;;;;;;37.05;19.55;;;;;;;-5.05;100.00;95270.09;4945840;28;20039;-76
2022/01/17 06:18:48;;;;;;;33.83;17.63;;;;;;;-4.82;100.00;95278.25;4946944;28;20703;-76
2022/01/17 06:21:14;;;;;;;35.55;18.40;;;;;;;-4.63;100.00;95278.22;4948392;28;20512;-77
2022/01/17 06:23:39;;;;;;;27.88;12.90;;;;;;;-4.43;100.00;95287.41;4949865;28;20043;-76
2022/01/17 06:26:05;;;;;;;22.02;11.02;;;;;;;-4.26;100.00;95267.16;4947536;28;20023;-77
2022/01/17 06:28:30;;;;;;;20.13;11.60;;;;;;;-4.06;100.00;95277.13;4933117;28;20027;-77
2022/01/17 06:30:55;;;;;;;43.83;13.35;;;;;;;-3.74;100.00;95267.94;4947523;28;20039;-76
2022/01/17 06:33:21;;;;;;;26.15;13.32;;;;;;;-3.09;100.00;95268.75;4948303;28;20023;-76
2022/01/17 06:35:46;;;;;;;23.30;13.15;;;;;;;-2.81;100.00;95271.44;4947996;28;20024;-76
2022/01/17 06:38:12;;;;;;;23.08;12.48;;;;;;;-2.58;98.44;95265.13;4950015;28;20027;-76
2022/01/17 06:40:37;;;;;;;24.95;13.27;;;;;;;-2.38;97.66;95277.53;4929564;29;20549;-76
2022/01/17 06:43:06;;;;;;;23.92;11.95;;;;;;;-1.98;95.32;95273.53;4959691;28;20511;-76
2022/01/17 06:45:31;;;;;;;26.98;13.55;;;;;;;-2.01;95.07;95279.63;4948899;28;20030;-76
2022/01/17 06:47:57;;;;;;;34.33;17.88;;;;;;;-2.87;99.02;95285.28;4947006;28;20420;-76
2022/01/17 06:50:23;;;;;;;34.70;20.73;;;;;;;-2.81;100.00;95290.00;4965077;28;20125;-76
2022/01/17 06:52:49;;;;;;;28.25;15.85;;;;;;;-1.91;98.51;95283.25;4947849;28;20170;-76
2022/01/17 06:55:14;;;;;;;33.95;15.63;;;;;;;-0.52;92.00;95280.81;4964754;28;20537;-76
2022/01/17 06:57:40;;;;;;;22.88;14.10;;;;;;;1.27;81.82;95284.97;4949391;28;20023;-77
2022/01/17 07:00:08;;;;;;;31.48;17.23;;;;;;;1.29;75.91;95263.53;4947639;28;20028;-77
2022/01/17 07:02:33;;;;;;;27.73;17.83;;;;;;;-0.34;82.56;95272.00;4936568;28;20089;-77
2022/01/17 07:04:59;;;;;;;31.45;18.50;;;;;;;-0.65;87.30;95275.66;4962595;28;20106;-76
2022/01/17 07:07:24;;;;;;;26.20;16.90;;;;;;;-0.50;90.15;95276.44;4950188;28;20023;-76
2022/01/17 07:09:51;;;;;;;28.38;16.88;;;;;;;0.09;87.86;95268.34;4947797;28;20062;-76
2022/01/17 07:12:18;;;;;;;26.50;15.73;;;;;;;0.19;87.56;95259.19;4949127;28;20034;-76
2022/01/17 07:14:43;;;;;;;25.20;15.05;;;;;;;0.81;84.74;95267.72;4945439;28;20035;-76
2022/01/17 07:17:09;;;;;;;24.92;15.23;;;;;;;1.30;80.88;95262.59;4949811;28;20038;-76
2022/01/17 07:19:35;;;;;;;31.45;15.88;;;;;;;1.20;80.39;95264.16;4948117;28;20026;-76
2022/01/17 07:22:01;;;;;;;30.52;15.73;;;;;;;2.87;73.92;95262.13;4946812;28;20451;-76
2022/01/17 07:24:26;;;;;;;21.30;14.45;;;;;;;2.07;73.71;95274.09;4963656;28;20031;-76
2022/01/17 07:26:52;;;;;;;21.35;14.20;;;;;;;4.27;60.48;95269.78;4946174;28;20019;-76
2022/01/17 07:29:18;;;;;;;22.70;13.75;;;;;;;4.79;57.89;95288.44;4956349;28;20022;-76
2022/01/17 07:31:43;;;;;;;25.67;14.98;;;;;;;2.82;65.82;95288.06;4962049;28;20436;-76
2022/01/17 07:34:09;;;;;;;24.90;14.20;;;;;;;4.31;60.55;95279.63;4947302;28;20042;-76
2022/01/17 07:36:34;;;;;;;20.42;13.52;;;;;;;3.86;61.11;95286.72;4948640;28;20503;-75
2022/01/17 07:39:00;;;;;;;21.23;13.43;;;;;;;4.08;63.32;95284.06;4946894;28;20030;-76
2022/01/17 07:41:26;;;;;;;21.35;14.13;;;;;;;4.61;57.72;95269.44;4947840;28;20030;-73
2022/01/17 07:43:53;;;;;;;19.15;12.88;;;;;;;5.38;57.19;95258.66;4944887;28;20122;-74
2022/01/17 07:47:05;;;;;;;22.73;13.48;;;;;;;5.39;56.15;95258.56;4947698;28;20086;-75
2022/01/17 07:49:10;;;;;;;25.45;14.60;;;;;;;4.97;57.02;95269.88;4940142;28;20114;-75
2022/01/17 07:51:42;;;;;;;23.38;15.35;;;;;;;6.72;52.37;95294.72;4962867;28;20092;-75
2022/01/17 07:54:10;;;;;;;22.55;15.85;;;;;;;6.25;53.54;95296.41;4946449;28;20497;-75
2022/01/17 07:56:36;;;;;;;26.35;17.10;;;;;;;5.59;56.70;95313.31;4947693;28;20414;-75
2022/01/17 07:59:02;;;;;;;26.42;17.95;;;;;;;7.68;51.46;95333.81;4948906;28;20030;-75
2022/01/17 08:01:29;;;;;;;27.63;19.90;;;;;;;9.18;47.88;95364.88;4945650;28;20146;-76
2022/01/17 08:03:54;;;;;;;29.85;18.95;;;;;;;8.03;49.48;95350.31;4946691;28;20208;-76
2022/01/17 08:06:20;;;;;;;30.15;19.25;;;;;;;9.71;45.89;95329.28;4946708;28;20105;-77
2022/01/17 08:08:47;;;;;;;29.02;20.92;;;;;;;9.56;46.87;95317.91;4947334;28;20046;-77
2022/01/17 08:11:12;;;;;;;25.83;19.58;;;;;;;12.24;41.35;95268.22;4946555;28;20068;-77
2022/01/17 08:13:38;;;;;;;28.13;20.92;;;;;;;12.04;40.27;95260.06;4945776;28;20058;-77
2022/01/17 08:16:03;;;;;;;34.53;21.48;;;;;;;11.86;41.10;95251.75;4946878;28;20019;-77
2022/01/17 08:18:29;;;;;;;31.30;21.35;;;;;;;12.08;40.77;95255.34;4961987;28;20031;-78
2022/01/17 08:20:55;;;;;;;29.70;22.95;;;;;;;13.12;39.59;95271.09;4946934;28;20163;-77
2022/01/17 08:23:20;;;;;;;34.20;22.40;;;;;;;13.74;38.43;95279.31;4944298;28;20023;-77
2022/01/17 08:25:46;;;;;;;29.85;23.73;;;;;;;11.35;42.14;95301.56;4944544;28;20038;-78
2022/01/17 08:28:13;;;;;;;29.90;23.13;;;;;;;10.76;43.54;95334.69;4927325;29;20035;-77
2022/01/17 08:30:39;;;;;;;28.08;21.48;;;;;;;12.31;42.46;95360.03;4929720;28;20101;-76
2022/01/17 08:33:04;;;;;;;30.02;22.02;;;;;;;13.61;39.91;95373.63;4944568;28;20031;-76
2022/01/17 08:35:30;;;;;;;28.55;19.83;;;;;;;12.08;42.07;95388.56;4929153;28;20035;-76
2022/01/17 08:37:55;;;;;;;25.92;19.77;;;;;;;11.56;43.78;95377.03;4944064;28;20024;-75
2022/01/17 08:40:22;;;;;;;23.13;18.58;;;;;;;12.07;42.32;95342.78;4941077;28;20034;-76
2022/01/17 08:42:49;;;;;;;25.35;18.17;;;;;;;12.41;41.88;95345.06;4925815;28;20105;-77
2022/01/17 08:45:16;;;;;;;22.05;17.42;;;;;;;8.35;49.83;95353.22;4927862;29;20042;-76
2022/01/17 08:47:46;;;;;;;20.02;16.63;;;;;;;9.80;45.45;95304.25;4961092;28;20028;-78
2022/01/17 08:50:11;;;;;;;20.30;14.63;;;;;;;11.01;44.84;95309.56;4941679;28;20039;-76
2022/01/17 08:52:37;;;;;;;19.92;15.20;;;;;;;13.59;40.99;95278.50;4942926;28;20039;-76
2022/01/17 08:55:03;;;;;;;18.95;14.50;;;;;;;13.51;40.69;95232.59;4944264;28;20066;-77
2022/01/17 08:57:28;;;;;;;22.13;14.63;;;;;;;11.99;42.86;95246.81;4937066;28;20038;-77
2022/01/17 08:59:54;;;;;;;20.33;13.90;;;;;;;12.27;42.88;95262.69;4944057;28;20563;-76
2022/01/17 09:02:19;;;;;;;14.90;13.40;;;;;;;10.22;47.06;95237.72;4944124;28;20039;-77
2022/01/17 09:04:45;;;;;;;16.60;12.18;;;;;;;12.81;42.78;95182.78;4931047;28;20038;-77
2022/01/17 09:07:13;;;;;;;13.55;12.15;;;;;;;13.11;41.57;95181.03;4960840;28;20031;-76
2022/01/17 09:09:40;;;;;;;14.48;10.40;;;;;;;12.05;43.87;95183.81;4967898;28;20047;-77
2022/01/17 09:12:07;;;;;;;9.85;8.85;;;;;;;10.33;46.55;95182.25;4950381;28;20034;-76
2022/01/17 09:14:33;;;;;;;10.73;8.50;;;;;;;13.03;41.23;95179.31;4964839;28;20054;-80
2022/01/17 09:16:59;;;;;;;9.15;8.15;;;;;;;13.93;39.19;95166.78;4937344;28;20053;-76
2022/01/17 09:19:25;;;;;;;10.00;9.10;;;;;;;12.06;42.56;95154.28;4961180;28;20083;-75
2022/01/17 09:21:54;;;;;;;10.57;9.48;;;;;;;14.20;39.98;95139.97;4962578;28;20122;-79
2022/01/17 09:24:19;;;;;;;10.07;9.13;;;;;;;12.26;41.93;95136.44;4945309;28;20043;-78
2022/01/17 09:26:46;;;;;;;10.13;9.20;;;;;;;13.18;41.54;95141.13;4946771;28;20321;-76
2022/01/17 09:29:11;;;;;;;9.57;8.70;;;;;;;13.34;42.34;95170.53;4945644;28;20027;-76
2022/01/17 09:31:37;;;;;;;8.88;7.97;;;;;;;12.71;42.45;95174.47;4945729;28;20034;-75
2022/01/17 09:34:02;;;;;;;8.93;8.02;;;;;;;14.37;39.16;95160.56;4946314;28;20028;-75
2022/01/17 09:36:31;;;;;;;9.35;8.18;;;;;;;11.68;42.07;95178.53;4960828;28;20126;-76
2022/01/17 09:38:57;;;;;;;8.60;7.78;;;;;;;13.28;40.59;95176.44;4965480;28;20488;-76
2022/01/17 09:41:23;;;;;;;9.30;8.45;;;;;;;13.83;39.10;95181.91;4947789;28;20027;-76
2022/01/17 09:43:50;;;;;;;9.60;8.60;;;;;;;14.85;38.84;95193.59;4949263;28;20452;-76
2022/01/17 09:46:17;;;;;;;9.48;8.50;;;;;;;13.79;40.72;95175.44;4930877;29;20090;-75
2022/01/17 09:48:47;;;;;;;9.70;8.55;;;;;;;13.08;40.45;95176.16;4958331;28;20031;-75
2022/01/17 09:51:31;;;;;;;10.00;8.90;;;;;;;13.24;40.30;95196.00;4949348;28;20077;-76
2022/01/17 09:53:59;;;;;;;10.18;8.93;;;;;;;14.06;39.58;95186.94;4930891;29;20138;-75
2022/01/17 09:56:26;;;;;;;9.60;8.75;;;;;;;12.45;42.60;95200.06;4937792;28;20066;-76
2022/01/17 09:58:52;;;;;;;11.10;8.95;;;;;;;12.35;42.79;95204.69;4960923;28;20058;-75
2022/01/17 10:01:17;;;;;;;9.27;8.48;;;;;;;12.50;43.24;95195.13;4948098;28;20078;-75
2022/01/17 10:03:45;;;;;;;10.05;9.05;;;;;;;12.64;43.58;95189.97;4949825;28;20114;-76
2022/01/17 10:06:11;;;;;;;9.68;8.77;;;;;;;12.78;43.13;95188.34;4963770;28;20031;-76
2022/01/17 10:08:36;;;;;;;10.25;9.25;;;;;;;12.43;43.42;95196.81;4933043;29;20034;-76
2022/01/17 10:11:04;;;;;;;10.05;9.00;;;;;;;12.35;43.65;95195.09;4950293;28;20570;-75
2022/01/17 10:13:37;;;;;;;10.63;9.52;;;;;;;12.07;44.51;95202.59;4954101;28;21183;-76
2022/01/17 10:16:08;;;;;;;9.40;8.60;;;;;;;10.52;46.17;95212.97;4963682;28;20071;-75
2022/01/17 10:18:39;;;;;;;10.05;9.13;;;;;;;11.74;46.04;95218.56;4965496;28;20117;-76
2022/01/17 10:21:11;;;;;;;11.02;8.30;;;;;;;11.19;45.64;95200.50;4963911;28;20047;-75
2022/01/17 10:24:08;;;;;;;10.88;7.25;;;;;;;10.11;48.64;95204.41;4947694;28;20444;-76
2022/01/17 10:35:33;;;;;;;7.55;6.85;;;;;;;10.01;49.11;95173.50;4945750;28;20485;-75
2022/01/17 10:38:11;;;;;;;10.43;6.55;;;;;;;9.70;48.77;95190.59;4912156;29;20667;-74
2022/01/17 10:40:44;;;;;;;6.20;5.60;;;;;;;6.05;60.96;95195.31;4943913;28;20031;-75
2022/01/17 10:43:19;;;;;;;5.22;4.82;;;;;;;5.74;64.33;95186.13;4934554;28;20063;-76
2022/01/17 10:45:44;;;;;;;7.63;5.10;;;;;;;5.85;67.68;95180.84;4946778;28;20046;-75
2022/01/17 10:48:10;;;;;;;7.35;4.68;;;;;;;6.47;65.02;95167.50;4944264;28;20686;-75
2022/01/17 10:50:42;;;;;;;5.32;4.70;;;;;;;5.97;67.90;95177.22;4945940;28;20049;-75
2022/01/17 10:53:11;;;;;;;5.03;4.20;;;;;;;6.00;64.89;95171.00;4932170;28;20436;-75
2022/01/17 10:55:59;;;;;;;6.82;4.53;;;;;;;6.33;66.37;95173.06;4946929;28;20031;-75
2022/01/17 10:58:28;;;;;;;5.00;4.50;;;;;;;6.53;64.99;95176.41;4948005;28;20429;-74
2022/01/17 11:00:56;;;;;;;5.63;4.40;;;;;;;5.35;67.01;95175.03;4951314;28;20058;-77
2022/01/17 11:03:30;;;;;;;7.05;4.28;;;;;;;5.76;67.90;95181.66;4929590;28;20536;-77
2022/01/17 11:05:57;;;;;;;4.25;3.85;;;;;;;5.56;67.29;95164.63;4949068;28;20432;-76
2022/01/17 11:08:25;;;;;;;3.70;3.40;;;;;;;5.63;66.21;95166.50;4946676;28;20504;-75
2022/01/17 11:10:54;;;;;;;6.60;3.50;;;;;;;6.06;66.30;95171.25;4961244;28;20530;-75
2022/01/17 11:13:22;;;;;;;3.53;3.22;;;;;;;6.35;64.77;95166.03;4963078;28;20073;-75
2022/01/17 11:15:56;;;;;;;3.90;3.50;;;;;;;6.33;63.82;95155.06;4929092;29;20067;-77
2022/01/17 11:18:25;;;;;;;3.83;3.47;;;;;;;6.25;63.92;95149.84;4944578;28;20036;-76
2022/01/17 11:21:00;;;;;;;5.68;4.00;;;;;;;5.92;65.51;95135.69;4941971;28;20058;-76
2022/01/17 11:23:27;;;;;;;4.50;3.75;;;;;;;5.71;64.37;95140.16;4945214;28;20035;-76
2022/01/17 11:25:55;;;;;;;5.72;4.18;;;;;;;6.01;64.59;95149.47;4947139;28;20031;-76
2022/01/17 11:28:29;;;;;;;6.40;3.83;;;;;;;5.77;63.83;95148.13;4948761;28;20043;-79
2022/01/17 11:30:57;;;;;;;5.30;3.58;;;;;;;6.13;63.29;95136.31;4931713;28;20062;-77
2022/01/17 11:33:24;;;;;;;6.22;3.70;;;;;;;6.10;63.83;95133.22;4944503;28;20501;-76
2022/01/17 11:35:53;;;;;;;5.22;3.47;;;;;;;6.31;62.37;95123.56;4947540;28;20595;-77
2022/01/17 11:38:27;;;;;;;5.32;3.72;;;;;;;6.17;63.69;95126.56;4945541;28;20523;-77
2022/01/17 11:40:53;;;;;;;5.80;3.97;;;;;;;6.41;63.52;95136.38;4947855;28;20122;-76
2022/01/17 11:43:23;;;;;;;4.78;4.38;;;;;;;6.19;63.31;95129.81;4941679;28;20052;-77
2022/01/17 11:45:52;;;;;;;4.20;3.60;;;;;;;6.05;61.90;95110.50;4945819;28;20029;-77
2022/01/17 11:48:24;;;;;;;4.75;4.15;;;;;;;6.09;62.62;95121.31;4947415;28;20031;-77
2022/01/17 11:50:52;;;;;;;4.10;3.72;;;;;;;5.70;63.22;95126.50;4946317;28;20066;-77
2022/01/17 11:53:17;;;;;;;5.50;3.75;;;;;;;6.00;63.49;95122.97;4931907;28;20424;-77
2022/01/17 11:55:44;;;;;;;5.35;4.45;;;;;;;6.26;62.66;95118.03;4946527;28;20070;-77
2022/01/17 11:58:32;;;;;;;4.47;4.03;;;;;;;6.29;61.71;95107.47;4948409;28;20710;-77
2022/01/17 12:01:00;;;;;;;4.88;4.32;;;;;;;6.01;63.52;95093.72;4946886;28;20509;-77
2022/01/17 12:03:42;;;;;;;5.43;4.70;;;;;;;6.33;63.23;95093.34;4947735;28;20090;-78
2022/01/17 12:06:26;;;;;;;4.45;4.00;;;;;;;6.01;62.76;95095.47;4948671;28;20086;-78
2022/01/17 12:09:19;;;;;;;14.18;5.15;;;;;;;6.04;62.96;95111.44;4947281;28;20039;-79
2022/01/17 12:11:48;;;;;;;4.72;4.22;;;;;;;6.15;63.43;95123.34;4947827;28;20035;-79
2022/01/17 12:14:41;;;;;;;4.57;4.18;;;;;;;6.41;62.30;95121.75;4946503;28;20019;-77
2022/01/17 12:17:18;;;;;;;4.78;4.22;;;;;;;6.37;62.11;95112.69;4947737;28;20039;-78
2022/01/17 12:20:19;;;;;;;4.75;4.35;;;;;;;6.27;62.76;95101.63;4948903;28;20056;-77
2022/01/17 12:22:51;;;;;;;7.97;4.28;;;;;;;6.15;63.47;95092.47;4945690;28;20042;-77
2022/01/17 12:25:26;;;;;;;5.18;4.68;;;;;;;6.10;62.07;95092.09;4946929;28;20556;-76
2022/01/17 12:28:17;;;;;;;4.95;4.40;;;;;;;5.60;63.79;95082.03;4947126;28;20527;-77
2022/01/17 12:30:45;;;;;;;5.32;4.82;;;;;;;5.62;64.54;95067.28;4943986;28;20582;-77
2022/01/17 12:33:30;;;;;;;5.60;4.18;;;;;;;5.90;65.17;95068.22;4961674;28;20046;-77
2022/01/17 12:35:58;;;;;;;5.55;4.75;;;;;;;5.94;63.24;95055.91;4946084;28;20039;-76
2022/01/17 12:38:36;;;;;;;5.40;4.82;;;;;;;5.70;63.63;95059.69;4945761;28;20515;-76
2022/01/17 12:41:02;;;;;;;5.20;4.60;;;;;;;5.61;63.95;95064.84;4947197;28;20066;-76
2022/01/17 12:43:33;;;;;;;5.40;4.90;;;;;;;5.80;62.52;95068.22;4959989;28;20035;-76
2022/01/17 12:46:08;;;;;;;5.70;4.95;;;;;;;5.56;62.73;95090.13;4953268;28;20023;-76
2022/01/17 12:48:36;;;;;;;5.85;5.22;;;;;;;5.57;61.84;95105.41;4911066;29;20042;-77
2022/01/17 12:51:06;;;;;;;5.50;4.60;;;;;;;5.64;62.87;95093.66;4928116;29;20437;-76
2022/01/17 12:53:32;;;;;;;4.80;4.38;;;;;;;5.52;62.81;95087.00;4942545;28;20028;-76
2022/01/17 12:56:00;;;;;;;4.63;4.22;;;;;;;5.67;62.36;95070.25;4926369;29;20238;-76
2022/01/17 12:58:40;;;;;;;6.60;4.95;;;;;;;5.56;63.20;95047.28;4944307;28;20028;-76
2022/01/17 13:01:11;;;;;;;6.45;5.28;;;;;;;5.37;63.48;95039.59;4941501;29;20059;-76
2022/01/17 13:03:38;;;;;;;5.05;4.55;;;;;;;5.26;63.02;95032.06;4927472;29;20031;-77
2022/01/17 13:06:13;;;;;;;6.10;5.50;;;;;;;5.30;63.74;95035.97;4946199;28;20023;-77
2022/01/17 13:08:43;;;;;;;7.60;5.38;;;;;;;5.18;63.71;95016.53;4928924;29;20615;-79
2022/01/17 13:11:14;;;;;;;5.80;5.10;;;;;;;5.00;64.30;95021.53;4943334;28;20082;-77
2022/01/17 13:13:46;;;;;;;7.18;5.00;;;;;;;5.08;64.39;95020.84;4948626;28;20090;-77
2022/01/17 13:16:16;;;;;;;6.28;5.47;;;;;;;4.95;65.76;95007.47;4952127;28;20034;-76
2022/01/17 13:18:42;;;;;;;5.13;4.63;;;;;;;4.91;65.64;95006.16;4949298;28;20031;-77
2022/01/17 13:21:07;;;;;;;5.68;5.07;;;;;;;4.85;66.10;94992.09;4949662;28;20066;-76
2022/01/17 13:23:43;;;;;;;4.93;4.40;;;;;;;4.66;65.37;94974.94;4948365;28;20042;-76
2022/01/17 13:26:18;;;;;;;7.43;4.72;;;;;;;4.70;66.43;94991.69;4950384;28;20027;-77
2022/01/17 13:28:51;;;;;;;6.18;4.65;;;;;;;4.94;67.08;94986.16;4934312;29;20027;-76
2022/01/17 13:31:18;;;;;;;5.97;4.65;;;;;;;5.01;66.56;94963.34;4948098;28;20408;-77
2022/01/17 13:33:43;;;;;;;6.20;5.05;;;;;;;5.18;64.54;94934.38;4946678;28;20035;-77
2022/01/17 13:36:09;;;;;;;14.90;6.18;;;;;;;4.95;64.74;94939.00;4939970;28;20019;-75
2022/01/17 13:38:34;;;;;;;5.95;5.18;;;;;;;4.77;66.26;94944.03;4947121;28;20030;-74
2022/01/17 13:41:04;;;;;;;6.55;5.57;;;;;;;4.76;66.37;94937.28;4947672;28;20530;-75
2022/01/17 13:43:30;;;;;;;10.40;5.82;;;;;;;4.83;66.91;94934.16;4948020;28;20031;-75
2022/01/17 13:45:56;;;;;;;5.82;5.30;;;;;;;4.69;65.72;94922.56;4950018;29;20092;-76
2022/01/17 13:48:27;;;;;;;6.75;5.78;;;;;;;4.66;66.60;94918.50;4948760;29;20485;-75
2022/01/17 13:50:54;;;;;;;6.65;4.97;;;;;;;4.48;68.04;94917.59;4948091;28;20035;-75
2022/01/17 13:53:23;;;;;;;6.60;5.60;;;;;;;4.53;67.89;94912.84;4946027;28;20043;-74
2022/01/17 13:55:49;;;;;;;6.90;6.20;;;;;;;4.45;68.57;94909.34;4951298;28;20059;-75
2022/01/17 13:58:17;;;;;;;5.45;4.95;;;;;;;4.42;68.96;94920.69;4964367;28;20118;-75
2022/01/17 14:00:45;;;;;;;5.13;4.68;;;;;;;4.41;67.54;94918.25;4965118;28;20027;-74
2022/01/17 14:03:13;;;;;;;8.23;5.18;;;;;;;4.39;66.79;94912.47;4949625;28;20535;-75
2022/01/17 14:05:41;;;;;;;6.63;4.75;;;;;;;4.39;68.22;94909.88;4946269;28;20039;-73
2022/01/17 14:08:13;;;;;;;6.63;5.05;;;;;;;4.37;68.25;94907.44;4933121;28;20066;-74
2022/01/17 14:11:05;;;;;;;7.20;5.25;;;;;;;4.34;68.35;94894.91;4946976;28;20043;-75
2022/01/17 14:13:33;;;;;;;6.72;5.97;;;;;;;4.37;69.26;94899.75;4948931;28;20031;-75
2022/01/17 14:16:20;;;;;;;5.40;4.80;;;;;;;4.36;68.16;94887.09;4949957;28;20027;-75
2022/01/17 14:19:08;;;;;;;6.70;5.18;;;;;;;4.25;68.94;94886.28;4941765;28;20115;-74
2022/01/17 14:21:37;;;;;;;5.15;4.00;;;;;;;4.24;69.62;94881.28;4950664;28;20035;-75
2022/01/17 14:24:03;;;;;;;4.53;3.80;;;;;;;4.22;69.07;94885.72;4946504;28;20503;-74
2022/01/17 14:26:29;;;;;;;5.32;4.32;;;;;;;4.01;69.75;94874.81;4948904;28;20031;-75
2022/01/17 14:28:54;;;;;;;7.45;4.20;;;;;;;4.09;68.60;94873.19;4938119;28;20511;-75
2022/01/17 14:31:20;;;;;;;4.43;4.03;;;;;;;4.04;68.48;94864.28;4944546;28;20028;-74
2022/01/17 14:33:49;;;;;;;5.45;4.00;;;;;;;3.90;68.87;94859.53;4931306;29;20547;-74
2022/01/17 14:36:16;;;;;;;5.22;3.92;;;;;;;3.86;69.69;94847.94;4946655;28;20035;-74
2022/01/17 14:38:53;;;;;;;5.93;4.00;;;;;;;3.86;68.87;94856.44;4933202;29;20057;-74
2022/01/17 14:41:33;;;;;;;5.82;4.45;;;;;;;3.71;69.85;94857.75;4962508;28;20035;-74
2022/01/17 14:44:03;;;;;;;7.20;4.38;;;;;;;3.64;70.85;94864.34;4932624;28;20083;-74
2022/01/17 14:46:29;;;;;;;4.20;3.80;;;;;;;3.62;71.15;94866.22;4932536;28;20043;-74
2022/01/17 14:48:54;;;;;;;4.72;3.88;;;;;;;3.53;71.57;94864.47;4963618;28;20035;-74
2022/01/17 14:51:25;;;;;;;5.20;4.70;;;;;;;3.42;72.80;94883.28;4964020;28;20043;-74
2022/01/17 14:53:54;;;;;;;5.78;4.88;;;;;;;3.26;73.98;94890.63;4945005;28;20045;-74
2022/01/17 15:01:57;;;;;;;8.50;5.28;;;;;;;2.91;77.39;94897.84;4946915;28;20086;-74
2022/01/17 15:04:23;;;;;;;7.63;6.45;;;;;;;2.89;77.96;94899.72;4945001;28;20131;-74
2022/01/17 15:06:49;;;;;;;6.10;5.03;;;;;;;2.71;78.59;94896.91;4929020;29;20421;-75
2022/01/17 15:09:14;;;;;;;7.25;6.13;;;;;;;2.72;79.64;94902.84;4944924;28;20031;-74
2022/01/17 15:11:40;;;;;;;10.93;7.88;;;;;;;2.77;78.88;94900.69;4945242;29;20046;-74
2022/01/17 15:14:06;;;;;;;10.48;7.72;;;;;;;2.85;77.46;94899.16;4944427;28;20042;-74
2022/01/17 15:16:33;;;;;;;7.20;5.97;;;;;;;2.62;78.38;94898.47;4949089;28;20045;-75
2022/01/17 15:18:59;;;;;;;7.97;5.95;;;;;;;2.55;78.28;94892.22;4952707;28;20035;-75
2022/01/17 15:21:24;;;;;;;10.05;7.13;;;;;;;2.36;79.55;94894.66;4949250;28;20046;-75
2022/01/17 15:23:50;;;;;;;11.85;9.32;;;;;;;2.20;81.32;94896.78;4928934;28;20059;-75
2022/01/17 15:26:15;;;;;;;12.85;8.10;;;;;;;2.13;82.71;94893.09;4963702;28;20106;-75
2022/01/17 15:28:41;;;;;;;8.57;6.00;;;;;;;2.14;82.60;94884.50;4947940;28;20023;-75
2022/01/17 15:31:09;;;;;;;7.00;6.00;;;;;;;2.16;83.74;94879.28;4947649;28;20186;-75
2022/01/17 15:33:37;;;;;;;8.50;6.28;;;;;;;2.21;83.06;94866.97;4930364;29;20034;-75
2022/01/17 15:36:03;;;;;;;10.27;6.80;;;;;;;2.27;82.93;94863.91;4946648;28;20038;-75
2022/01/17 15:38:28;;;;;;;20.35;11.40;;;;;;;2.24;82.48;94862.41;4947361;28;20028;-75
2022/01/17 15:40:54;;;;;;;9.85;7.30;;;;;;;2.15;83.34;94860.59;4947864;28;20508;-75
2022/01/17 15:43:21;;;;;;;9.38;7.18;;;;;;;2.03;83.89;94869.22;4946918;28;20485;-75
2022/01/17 15:45:46;;;;;;;14.38;7.72;;;;;;;2.01;83.89;94886.41;4946448;28;20023;-75
2022/01/17 15:48:12;;;;;;;10.93;7.28;;;;;;;1.95;83.84;94889.44;4948870;28;20019;-75
2022/01/17 15:50:38;;;;;;;8.10;6.70;;;;;;;1.83;84.48;94903.19;4947284;28;20636;-75
2022/01/17 15:53:04;;;;;;;9.40;6.13;;;;;;;1.63;86.76;94902.16;4946783;28;20543;-75
2022/01/17 15:55:29;;;;;;;8.48;6.35;;;;;;;1.50;88.02;94907.41;4942957;28;20047;-75
2022/01/17 15:57:54;;;;;;;11.18;7.22;;;;;;;1.44;88.75;94909.59;4959330;28;20027;-74
2022/01/17 16:00:20;;;;;;;9.10;5.90;;;;;;;1.42;88.64;94919.09;4947218;28;20098;-74
2022/01/17 16:02:45;;;;;;;8.07;6.10;;;;;;;1.36;88.89;94905.09;4929577;28;20196;-75
2022/01/17 16:05:11;;;;;;;7.50;5.70;;;;;;;1.25;89.00;94894.09;4946699;28;20114;-75
2022/01/17 16:07:36;;;;;;;12.40;10.48;;;;;;;1.23;89.87;94899.28;4947014;28;20023;-74
2022/01/17 16:10:07;;;;;;;7.30;6.50;;;;;;;1.02;91.15;94895.81;4947183;28;20389;-74
2022/01/17 16:12:36;;;;;;;7.65;6.53;;;;;;;0.98;91.16;94881.66;4946063;28;20033;-74
2022/01/17 16:15:06;;;;;;;10.32;6.00;;;;;;;1.07;90.93;94870.78;4947609;28;20031;-74
2022/01/17 16:17:32;;;;;;;8.75;6.45;;;;;;;0.92;91.32;94862.56;4947114;29;20039;-75
2022/01/17 16:19:58;;;;;;;12.10;6.65;;;;;;;0.91;91.41;94870.31;4950012;28;20034;-75
2022/01/17 16:22:23;;;;;;;9.73;6.45;;;;;;;0.90;90.69;94863.59;4958519;28;20420;-75
2022/01/17 16:24:49;;;;;;;8.70;6.32;;;;;;;0.88;90.62;94871.34;4960093;28;20041;-75
2022/01/17 16:27:15;;;;;;;8.38;6.78;;;;;;;0.86;90.71;94874.94;4962411;28;20030;-75
2022/01/17 16:29:48;;;;;;;8.40;6.57;;;;;;;0.68;92.29;94866.09;4961093;28;20090;-75
2022/01/17 16:32:15;;;;;;;13.95;7.50;;;;;;;0.59;93.43;94862.50;4945689;28;20511;-74
2022/01/17 16:34:41;;;;;;;37.33;10.95;;;;;;;0.70;93.17;94856.63;4960998;28;20032;-75
2022/01/17 16:37:06;;;;;;;43.45;14.82;;;;;;;0.67;92.58;94852.56;4945108;28;20511;-75
2022/01/17 16:39:32;;;;;;;32.05;14.50;;;;;;;0.73;92.83;94864.03;4947578;28;20039;-75
2022/01/17 16:41:57;;;;;;;20.55;11.77;;;;;;;0.63;92.98;94860.53;4946398;28;20035;-75
2022/01/17 16:44:23;;;;;;;11.13;8.32;;;;;;;0.74;92.01;94861.34;4947152;28;20027;-75
2022/01/17 16:46:48;;;;;;;10.05;7.45;;;;;;;0.84;91.94;94861.47;4961078;28;20126;-75
2022/01/17 16:49:14;;;;;;;8.38;6.57;;;;;;;1.03;89.64;94871.91;4960900;28;20030;-75
2022/01/17 16:51:39;;;;;;;10.50;6.65;;;;;;;1.13;89.43;94870.31;4946874;28;20037;-74